sensor_id;sensor_type;location;lat;lon;timestamp;temperature;humidity
6792;DHT22;3433;48.730;9.108;2023-02-26T00:00:06;3.20;98.20
6792;DHT22;3433;48.730;9.108;2023-02-26T00:02:57;3.20;98.00
6792;DHT22;3433;48.730;9.108;2023-02-26T00:05:44;3.20;97.70
6792;DHT22;3433;48.730;9.108;2023-02-26T00:08:31;3.10;98.10
6792;DHT22;3433;48.730;9.108;2023-02-26T00:11:19;3.10;98.20
6792;DHT22;3433;48.730;9.108;2023-02-26T00:14:08;3.20;98.10
6792;DHT22;3433;48.730;9.108;2023-02-26T00:17:18;3.00;97.90
6792;DHT22;3433;48.730;9.108;2023-02-26T00:20:09;2.90;97.80
6792;DHT22;3433;48.730;9.108;2023-02-26T00:22:58;2.90;98.00
6792;DHT22;3433;48.730;9.108;2023-02-26T00:25:51;2.90;97.90
6792;DHT22;3433;48.730;9.108;2023-02-26T00:28:39;2.80;97.60
6792;DHT22;3433;48.730;9.108;2023-02-26T00:31:26;2.80;97.90
6792;DHT22;3433;48.730;9.108;2023-02-26T00:34:16;2.70;97.80
6792;DHT22;3433;48.730;9.108;2023-02-26T00:37:10;2.80;97.70
6792;DHT22;3433;48.730;9.108;2023-02-26T00:40:06;2.70;97.60
6792;DHT22;3433;48.730;9.108;2023-02-26T00:42:54;2.70;97.40
6792;DHT22;3433;48.730;9.108;2023-02-26T00:45:44;2.70;97.50
6792;DHT22;3433;48.730;9.108;2023-02-26T00:48:41;2.60;97.50
6792;DHT22;3433;48.730;9.108;2023-02-26T00:51:41;2.60;97.60
6792;DHT22;3433;48.730;9.108;2023-02-26T00:54:30;2.60;98.00
6792;DHT22;3433;48.730;9.108;2023-02-26T00:57:17;2.60;97.60
6792;DHT22;3433;48.730;9.108;2023-02-26T01:00:06;2.70;97.60
6792;DHT22;3433;48.730;9.108;2023-02-26T01:02:54;2.50;97.30
6792;DHT22;3433;48.730;9.108;2023-02-26T01:05:41;2.50;97.50
6792;DHT22;3433;48.730;9.108;2023-02-26T01:08:33;2.50;97.50
6792;DHT22;3433;48.730;9.108;2023-02-26T01:11:24;2.40;97.40
6792;DHT22;3433;48.730;9.108;2023-02-26T01:14:12;2.40;97.40
6792;DHT22;3433;48.730;9.108;2023-02-26T01:17:02;2.30;97.30
6792;DHT22;3433;48.730;9.108;2023-02-26T01:19:55;2.30;97.20
6792;DHT22;3433;48.730;9.108;2023-02-26T01:22:50;2.30;97.50
6792;DHT22;3433;48.730;9.108;2023-02-26T01:25:42;2.30;97.40
6792;DHT22;3433;48.730;9.108;2023-02-26T01:28:30;2.30;97.40
6792;DHT22;3433;48.730;9.108;2023-02-26T01:31:30;2.40;97.50
6792;DHT22;3433;48.730;9.108;2023-02-26T01:34:22;2.30;97.40
6792;DHT22;3433;48.730;9.108;2023-02-26T01:37:20;2.20;97.40
6792;DHT22;3433;48.730;9.108;2023-02-26T01:40:27;2.20;97.40
6792;DHT22;3433;48.730;9.108;2023-02-26T01:43:21;2.30;97.40
6792;DHT22;3433;48.730;9.108;2023-02-26T01:46:17;2.20;97.20
6792;DHT22;3433;48.730;9.108;2023-02-26T01:49:12;2.30;97.40
6792;DHT22;3433;48.730;9.108;2023-02-26T01:52:00;2.20;97.30
6792;DHT22;3433;48.730;9.108;2023-02-26T01:54:48;2.20;97.20
6792;DHT22;3433;48.730;9.108;2023-02-26T01:57:35;2.10;97.20
6792;DHT22;3433;48.730;9.108;2023-02-26T02:00:24;2.10;97.20
6792;DHT22;3433;48.730;9.108;2023-02-26T02:03:11;2.10;97.20
6792;DHT22;3433;48.730;9.108;2023-02-26T02:06:02;2.00;97.10
6792;DHT22;3433;48.730;9.108;2023-02-26T02:08:50;1.90;97.20
6792;DHT22;3433;48.730;9.108;2023-02-26T02:15:01;1.80;97.10
6792;DHT22;3433;48.730;9.108;2023-02-26T02:17:57;1.80;97.20
6792;DHT22;3433;48.730;9.108;2023-02-26T02:21:11;1.80;97.30
6792;DHT22;3433;48.730;9.108;2023-02-26T02:24:01;1.80;97.30
6792;DHT22;3433;48.730;9.108;2023-02-26T02:26:56;1.80;97.30
6792;DHT22;3433;48.730;9.108;2023-02-26T02:30:15;1.70;97.30
6792;DHT22;3433;48.730;9.108;2023-02-26T02:33:10;1.70;97.30
6792;DHT22;3433;48.730;9.108;2023-02-26T02:36:01;1.80;97.30
6792;DHT22;3433;48.730;9.108;2023-02-26T02:38:53;1.80;97.30
6792;DHT22;3433;48.730;9.108;2023-02-26T02:41:45;1.80;97.20
6792;DHT22;3433;48.730;9.108;2023-02-26T02:44:36;1.70;97.20
6792;DHT22;3433;48.730;9.108;2023-02-26T02:47:27;1.70;97.10
6792;DHT22;3433;48.730;9.108;2023-02-26T02:50:21;1.70;97.20
6792;DHT22;3433;48.730;9.108;2023-02-26T02:53:14;1.60;97.20
6792;DHT22;3433;48.730;9.108;2023-02-26T02:56:06;1.70;97.20
6792;DHT22;3433;48.730;9.108;2023-02-26T02:59:10;1.70;97.10
6792;DHT22;3433;48.730;9.108;2023-02-26T03:02:04;1.70;97.10
6792;DHT22;3433;48.730;9.108;2023-02-26T03:04:52;1.60;97.10
6792;DHT22;3433;48.730;9.108;2023-02-26T03:07:47;1.60;97.10
6792;DHT22;3433;48.730;9.108;2023-02-26T03:10:35;1.50;97.00
6792;DHT22;3433;48.730;9.108;2023-02-26T03:13:25;1.50;97.10
6792;DHT22;3433;48.730;9.108;2023-02-26T03:16:24;1.50;97.10
6792;DHT22;3433;48.730;9.108;2023-02-26T03:19:21;1.40;97.10
6792;DHT22;3433;48.730;9.108;2023-02-26T03:22:15;1.40;97.20
6792;DHT22;3433;48.730;9.108;2023-02-26T03:25:08;1.40;97.20
6792;DHT22;3433;48.730;9.108;2023-02-26T03:28:03;1.30;97.20
6792;DHT22;3433;48.730;9.108;2023-02-26T03:30:56;1.40;97.20
6792;DHT22;3433;48.730;9.108;2023-02-26T03:33:50;1.30;97.30
6792;DHT22;3433;48.730;9.108;2023-02-26T03:36:42;1.30;97.30
6792;DHT22;3433;48.730;9.108;2023-02-26T03:39:34;1.30;97.20
6792;DHT22;3433;48.730;9.108;2023-02-26T03:42:28;1.30;97.20
6792;DHT22;3433;48.730;9.108;2023-02-26T03:45:22;1.40;97.30
6792;DHT22;3433;48.730;9.108;2023-02-26T03:48:13;1.40;97.30
6792;DHT22;3433;48.730;9.108;2023-02-26T03:51:06;1.30;97.30
6792;DHT22;3433;48.730;9.108;2023-02-26T03:53:57;1.30;97.30
6792;DHT22;3433;48.730;9.108;2023-02-26T03:56:46;1.40;97.30
6792;DHT22;3433;48.730;9.108;2023-02-26T03:59:35;1.30;97.20
6792;DHT22;3433;48.730;9.108;2023-02-26T04:02:27;1.30;97.20
6792;DHT22;3433;48.730;9.108;2023-02-26T04:05:18;1.30;97.20
6792;DHT22;3433;48.730;9.108;2023-02-26T04:08:07;1.30;97.20
6792;DHT22;3433;48.730;9.108;2023-02-26T04:10:57;1.30;97.20
6792;DHT22;3433;48.730;9.108;2023-02-26T04:13:45;1.20;97.20
6792;DHT22;3433;48.730;9.108;2023-02-26T04:16:33;1.20;97.30
6792;DHT22;3433;48.730;9.108;2023-02-26T04:19:21;1.20;97.30
6792;DHT22;3433;48.730;9.108;2023-02-26T04:22:08;1.20;97.30
6792;DHT22;3433;48.730;9.108;2023-02-26T04:24:55;1.20;97.40
6792;DHT22;3433;48.730;9.108;2023-02-26T04:27:42;1.20;97.40
6792;DHT22;3433;48.730;9.108;2023-02-26T04:30:29;1.10;97.40
6792;DHT22;3433;48.730;9.108;2023-02-26T04:33:18;1.20;97.40
6792;DHT22;3433;48.730;9.108;2023-02-26T04:36:06;1.20;97.40
6792;DHT22;3433;48.730;9.108;2023-02-26T04:38:53;1.10;97.30
6792;DHT22;3433;48.730;9.108;2023-02-26T04:41:41;1.10;97.30
6792;DHT22;3433;48.730;9.108;2023-02-26T04:44:28;1.10;97.30
6792;DHT22;3433;48.730;9.108;2023-02-26T04:47:15;1.10;97.30
6792;DHT22;3433;48.730;9.108;2023-02-26T04:50:04;1.10;97.20
6792;DHT22;3433;48.730;9.108;2023-02-26T04:52:52;1.10;97.30
6792;DHT22;3433;48.730;9.108;2023-02-26T04:55:39;1.10;97.30
6792;DHT22;3433;48.730;9.108;2023-02-26T04:58:27;1.00;97.20
6792;DHT22;3433;48.730;9.108;2023-02-26T05:01:14;1.00;97.30
6792;DHT22;3433;48.730;9.108;2023-02-26T05:04:01;1.00;97.30
6792;DHT22;3433;48.730;9.108;2023-02-26T05:06:50;0.90;97.30
6792;DHT22;3433;48.730;9.108;2023-02-26T05:09:37;0.90;97.60
6792;DHT22;3433;48.730;9.108;2023-02-26T05:12:25;0.90;97.40
6792;DHT22;3433;48.730;9.108;2023-02-26T05:15:12;0.80;97.50
6792;DHT22;3433;48.730;9.108;2023-02-26T05:17:59;0.80;97.70
6792;DHT22;3433;48.730;9.108;2023-02-26T05:20:51;0.90;97.60
6792;DHT22;3433;48.730;9.108;2023-02-26T05:23:39;0.80;97.50
6792;DHT22;3433;48.730;9.108;2023-02-26T05:26:27;0.90;97.50
6792;DHT22;3433;48.730;9.108;2023-02-26T05:29:14;0.90;97.50
6792;DHT22;3433;48.730;9.108;2023-02-26T05:32:02;0.80;97.50
6792;DHT22;3433;48.730;9.108;2023-02-26T05:34:49;0.80;97.60
6792;DHT22;3433;48.730;9.108;2023-02-26T05:37:36;0.80;97.60
6792;DHT22;3433;48.730;9.108;2023-02-26T05:40:25;0.90;97.60
6792;DHT22;3433;48.730;9.108;2023-02-26T05:43:12;0.70;97.60
6792;DHT22;3433;48.730;9.108;2023-02-26T05:45:59;0.70;97.70
6792;DHT22;3433;48.730;9.108;2023-02-26T05:48:46;0.70;97.50
6792;DHT22;3433;48.730;9.108;2023-02-26T05:51:34;0.70;97.60
6792;DHT22;3433;48.730;9.108;2023-02-26T05:54:21;0.70;97.50
6792;DHT22;3433;48.730;9.108;2023-02-26T05:57:10;0.80;97.50
6792;DHT22;3433;48.730;9.108;2023-02-26T05:59:57;0.70;97.50
6792;DHT22;3433;48.730;9.108;2023-02-26T06:02:45;0.70;97.50
6792;DHT22;3433;48.730;9.108;2023-02-26T06:05:32;0.60;97.50
6792;DHT22;3433;48.730;9.108;2023-02-26T06:08:21;0.60;97.80
6792;DHT22;3433;48.730;9.108;2023-02-26T06:11:08;0.70;97.50
6792;DHT22;3433;48.730;9.108;2023-02-26T06:13:57;0.60;97.50
6792;DHT22;3433;48.730;9.108;2023-02-26T06:16:44;0.60;97.60
6792;DHT22;3433;48.730;9.108;2023-02-26T06:19:31;0.50;97.80
6792;DHT22;3433;48.730;9.108;2023-02-26T06:22:19;0.50;97.50
6792;DHT22;3433;48.730;9.108;2023-02-26T06:25:07;0.70;97.60
6792;DHT22;3433;48.730;9.108;2023-02-26T06:27:54;0.60;97.40
6792;DHT22;3433;48.730;9.108;2023-02-26T06:30:43;0.50;97.50
6792;DHT22;3433;48.730;9.108;2023-02-26T06:33:30;0.50;97.50
6792;DHT22;3433;48.730;9.108;2023-02-26T06:36:17;0.50;97.50
6792;DHT22;3433;48.730;9.108;2023-02-26T06:39:05;0.50;97.50
6792;DHT22;3433;48.730;9.108;2023-02-26T06:41:52;0.50;97.60
6792;DHT22;3433;48.730;9.108;2023-02-26T06:44:40;0.60;97.70
6792;DHT22;3433;48.730;9.108;2023-02-26T06:47:28;0.50;97.60
6792;DHT22;3433;48.730;9.108;2023-02-26T06:50:16;0.60;98.00
6792;DHT22;3433;48.730;9.108;2023-02-26T06:53:03;0.60;97.70
6792;DHT22;3433;48.730;9.108;2023-02-26T06:55:53;0.60;97.80
6792;DHT22;3433;48.730;9.108;2023-02-26T06:58:40;0.70;97.90
6792;DHT22;3433;48.730;9.108;2023-02-26T07:01:27;0.70;97.90
6792;DHT22;3433;48.730;9.108;2023-02-26T07:04:18;0.70;98.20
6792;DHT22;3433;48.730;9.108;2023-02-26T07:07:05;0.70;98.10
6792;DHT22;3433;48.730;9.108;2023-02-26T07:09:52;0.80;97.90
6792;DHT22;3433;48.730;9.108;2023-02-26T07:12:40;0.90;98.00
6792;DHT22;3433;48.730;9.108;2023-02-26T07:15:27;0.90;98.00
6792;DHT22;3433;48.730;9.108;2023-02-26T07:18:14;0.90;97.90
6792;DHT22;3433;48.730;9.108;2023-02-26T07:21:04;0.90;98.00
6792;DHT22;3433;48.730;9.108;2023-02-26T07:23:51;0.80;98.00
6792;DHT22;3433;48.730;9.108;2023-02-26T07:26:38;0.90;98.20
6792;DHT22;3433;48.730;9.108;2023-02-26T07:29:26;0.90;98.10
6792;DHT22;3433;48.730;9.108;2023-02-26T07:32:13;0.90;98.20
6792;DHT22;3433;48.730;9.108;2023-02-26T07:35:04;1.00;98.20
6792;DHT22;3433;48.730;9.108;2023-02-26T07:37:52;1.10;98.30
6792;DHT22;3433;48.730;9.108;2023-02-26T07:40:40;1.20;98.30
6792;DHT22;3433;48.730;9.108;2023-02-26T07:43:27;1.30;98.30
6792;DHT22;3433;48.730;9.108;2023-02-26T07:46:14;1.50;98.30
6792;DHT22;3433;48.730;9.108;2023-02-26T07:49:01;1.50;98.30
6792;DHT22;3433;48.730;9.108;2023-02-26T07:51:49;1.50;98.30
6792;DHT22;3433;48.730;9.108;2023-02-26T07:54:38;1.60;98.40
6792;DHT22;3433;48.730;9.108;2023-02-26T07:57:25;1.60;98.40
6792;DHT22;3433;48.730;9.108;2023-02-26T08:00:14;1.50;98.30
6792;DHT22;3433;48.730;9.108;2023-02-26T08:03:04;1.60;98.40
6792;DHT22;3433;48.730;9.108;2023-02-26T08:05:53;1.60;98.40
6792;DHT22;3433;48.730;9.108;2023-02-26T08:08:40;1.60;98.40
6792;DHT22;3433;48.730;9.108;2023-02-26T08:11:29;1.60;98.50
6792;DHT22;3433;48.730;9.108;2023-02-26T08:14:17;1.80;98.30
6792;DHT22;3433;48.730;9.108;2023-02-26T08:17:04;1.70;98.40
6792;DHT22;3433;48.730;9.108;2023-02-26T08:19:52;1.60;99.00
6792;DHT22;3433;48.730;9.108;2023-02-26T08:22:39;1.70;98.90
6792;DHT22;3433;48.730;9.108;2023-02-26T08:25:26;1.90;98.80
6792;DHT22;3433;48.730;9.108;2023-02-26T08:28:15;2.10;98.90
6792;DHT22;3433;48.730;9.108;2023-02-26T08:31:03;2.10;98.80
6792;DHT22;3433;48.730;9.108;2023-02-26T08:33:50;2.10;99.10
6792;DHT22;3433;48.730;9.108;2023-02-26T08:36:37;2.30;99.20
6792;DHT22;3433;48.730;9.108;2023-02-26T08:39:25;2.50;99.10
6792;DHT22;3433;48.730;9.108;2023-02-26T08:42:12;2.50;98.70
6792;DHT22;3433;48.730;9.108;2023-02-26T08:45:03;2.20;98.50
6792;DHT22;3433;48.730;9.108;2023-02-26T08:47:50;2.30;98.60
6792;DHT22;3433;48.730;9.108;2023-02-26T08:50:40;2.40;98.70
6792;DHT22;3433;48.730;9.108;2023-02-26T08:53:27;2.50;98.70
6792;DHT22;3433;48.730;9.108;2023-02-26T08:56:15;2.40;98.60
6792;DHT22;3433;48.730;9.108;2023-02-26T08:59:03;2.50;98.80
6792;DHT22;3433;48.730;9.108;2023-02-26T09:01:52;2.40;98.80
6792;DHT22;3433;48.730;9.108;2023-02-26T09:04:39;2.30;98.90
6792;DHT22;3433;48.730;9.108;2023-02-26T09:07:26;2.20;98.80
6792;DHT22;3433;48.730;9.108;2023-02-26T09:10:14;2.20;98.80
6792;DHT22;3433;48.730;9.108;2023-02-26T09:13:01;2.30;98.70
6792;DHT22;3433;48.730;9.108;2023-02-26T09:15:49;2.00;98.40
6792;DHT22;3433;48.730;9.108;2023-02-26T09:18:38;2.00;98.40
6792;DHT22;3433;48.730;9.108;2023-02-26T09:21:25;2.10;98.50
6792;DHT22;3433;48.730;9.108;2023-02-26T09:24:12;2.00;98.60
6792;DHT22;3433;48.730;9.108;2023-02-26T09:27:00;2.10;98.60
6792;DHT22;3433;48.730;9.108;2023-02-26T09:29:48;2.10;98.70
6792;DHT22;3433;48.730;9.108;2023-02-26T09:32:36;1.90;98.90
6792;DHT22;3433;48.730;9.108;2023-02-26T09:35:24;2.10;98.90
6792;DHT22;3433;48.730;9.108;2023-02-26T09:38:12;2.10;98.80
6792;DHT22;3433;48.730;9.108;2023-02-26T09:41:02;2.00;98.60
6792;DHT22;3433;48.730;9.108;2023-02-26T09:44:03;1.90;98.70
6792;DHT22;3433;48.730;9.108;2023-02-26T09:47:01;1.90;98.90
6792;DHT22;3433;48.730;9.108;2023-02-26T09:49:54;2.00;98.90
6792;DHT22;3433;48.730;9.108;2023-02-26T09:52:48;1.90;98.90
6792;DHT22;3433;48.730;9.108;2023-02-26T09:55:39;2.00;98.50
6792;DHT22;3433;48.730;9.108;2023-02-26T09:58:30;1.90;98.80
6792;DHT22;3433;48.730;9.108;2023-02-26T10:01:22;1.90;99.90
6792;DHT22;3433;48.730;9.108;2023-02-26T10:04:22;2.10;99.90
6792;DHT22;3433;48.730;9.108;2023-02-26T10:07:19;2.30;99.90
6792;DHT22;3433;48.730;9.108;2023-02-26T10:10:18;2.20;99.70
6792;DHT22;3433;48.730;9.108;2023-02-26T10:13:12;2.00;99.50
6792;DHT22;3433;48.730;9.108;2023-02-26T10:16:10;2.10;99.60
6792;DHT22;3433;48.730;9.108;2023-02-26T10:19:03;2.20;99.50
6792;DHT22;3433;48.730;9.108;2023-02-26T10:21:56;2.10;99.50
6792;DHT22;3433;48.730;9.108;2023-02-26T10:24:48;2.10;99.30
6792;DHT22;3433;48.730;9.108;2023-02-26T10:27:50;2.10;99.30
6792;DHT22;3433;48.730;9.108;2023-02-26T10:30:41;2.00;99.30
6792;DHT22;3433;48.730;9.108;2023-02-26T10:33:36;2.00;99.40
6792;DHT22;3433;48.730;9.108;2023-02-26T10:36:27;2.00;99.50
6792;DHT22;3433;48.730;9.108;2023-02-26T10:39:22;1.90;99.70
6792;DHT22;3433;48.730;9.108;2023-02-26T10:42:17;1.90;99.60
6792;DHT22;3433;48.730;9.108;2023-02-26T10:45:22;1.90;99.60
6792;DHT22;3433;48.730;9.108;2023-02-26T10:48:19;1.80;99.60
6792;DHT22;3433;48.730;9.108;2023-02-26T10:51:12;1.90;99.70
6792;DHT22;3433;48.730;9.108;2023-02-26T10:54:05;1.90;99.60
6792;DHT22;3433;48.730;9.108;2023-02-26T10:56:56;1.80;99.70
6792;DHT22;3433;48.730;9.108;2023-02-26T10:59:44;1.90;99.70
6792;DHT22;3433;48.730;9.108;2023-02-26T11:02:39;2.00;99.60
6792;DHT22;3433;48.730;9.108;2023-02-26T11:05:29;1.90;99.70
6792;DHT22;3433;48.730;9.108;2023-02-26T11:08:22;2.00;99.70
6792;DHT22;3433;48.730;9.108;2023-02-26T11:11:35;2.10;99.70
6792;DHT22;3433;48.730;9.108;2023-02-26T11:14:24;2.20;99.70
6792;DHT22;3433;48.730;9.108;2023-02-26T11:17:15;2.20;99.60
6792;DHT22;3433;48.730;9.108;2023-02-26T11:20:18;2.20;99.10
6792;DHT22;3433;48.730;9.108;2023-02-26T11:23:12;2.20;99.40
6792;DHT22;3433;48.730;9.108;2023-02-26T11:26:05;2.40;99.30
6792;DHT22;3433;48.730;9.108;2023-02-26T11:28:54;2.40;99.40
6792;DHT22;3433;48.730;9.108;2023-02-26T11:31:41;2.40;99.40
6792;DHT22;3433;48.730;9.108;2023-02-26T11:34:29;2.50;99.20
6792;DHT22;3433;48.730;9.108;2023-02-26T11:37:20;2.60;99.10
6792;DHT22;3433;48.730;9.108;2023-02-26T11:40:15;2.50;99.20
6792;DHT22;3433;48.730;9.108;2023-02-26T11:43:04;2.60;99.00
6792;DHT22;3433;48.730;9.108;2023-02-26T11:45:54;2.40;99.20
6792;DHT22;3433;48.730;9.108;2023-02-26T11:48:44;2.50;99.20
6792;DHT22;3433;48.730;9.108;2023-02-26T11:51:32;2.50;99.10
6792;DHT22;3433;48.730;9.108;2023-02-26T11:54:23;2.20;98.80
6792;DHT22;3433;48.730;9.108;2023-02-26T11:57:15;2.40;99.20
6792;DHT22;3433;48.730;9.108;2023-02-26T12:00:17;2.30;98.60
6792;DHT22;3433;48.730;9.108;2023-02-26T12:03:06;2.40;98.70
6792;DHT22;3433;48.730;9.108;2023-02-26T12:05:56;2.50;98.60
6792;DHT22;3433;48.730;9.108;2023-02-26T12:08:45;2.30;98.30
6792;DHT22;3433;48.730;9.108;2023-02-26T12:12:05;2.40;98.80
6792;DHT22;3433;48.730;9.108;2023-02-26T12:15:04;2.50;98.70
6792;DHT22;3433;48.730;9.108;2023-02-26T12:18:18;2.50;98.50
6792;DHT22;3433;48.730;9.108;2023-02-26T12:21:19;2.30;98.50
6792;DHT22;3433;48.730;9.108;2023-02-26T12:24:28;2.30;98.90
6792;DHT22;3433;48.730;9.108;2023-02-26T12:27:26;2.20;99.20
6792;DHT22;3433;48.730;9.108;2023-02-26T12:30:35;2.20;99.30
6792;DHT22;3433;48.730;9.108;2023-02-26T12:33:33;2.20;99.10
6792;DHT22;3433;48.730;9.108;2023-02-26T12:36:35;2.30;98.90
6792;DHT22;3433;48.730;9.108;2023-02-26T12:39:40;2.20;99.10
6792;DHT22;3433;48.730;9.108;2023-02-26T12:42:40;2.20;99.20
6792;DHT22;3433;48.730;9.108;2023-02-26T12:45:41;2.30;99.00
6792;DHT22;3433;48.730;9.108;2023-02-26T12:48:53;2.20;98.90
6792;DHT22;3433;48.730;9.108;2023-02-26T12:52:00;2.10;98.90
6792;DHT22;3433;48.730;9.108;2023-02-26T12:55:01;2.10;99.10
6792;DHT22;3433;48.730;9.108;2023-02-26T12:58:32;2.20;99.00
6792;DHT22;3433;48.730;9.108;2023-02-26T13:01:34;2.30;99.10
6792;DHT22;3433;48.730;9.108;2023-02-26T13:08:07;2.70;99.00
6792;DHT22;3433;48.730;9.108;2023-02-26T13:11:06;2.70;99.10
6792;DHT22;3433;48.730;9.108;2023-02-26T13:14:09;2.80;98.90
6792;DHT22;3433;48.730;9.108;2023-02-26T13:17:03;2.40;98.60
6792;DHT22;3433;48.730;9.108;2023-02-26T13:19:55;2.60;99.10
6792;DHT22;3433;48.730;9.108;2023-02-26T13:22:46;2.80;99.10
6792;DHT22;3433;48.730;9.108;2023-02-26T13:25:38;2.70;99.00
6792;DHT22;3433;48.730;9.108;2023-02-26T13:28:35;2.70;98.70
6792;DHT22;3433;48.730;9.108;2023-02-26T13:31:29;2.60;98.40
6792;DHT22;3433;48.730;9.108;2023-02-26T13:34:33;2.60;98.10
6792;DHT22;3433;48.730;9.108;2023-02-26T13:37:26;2.80;98.30
6792;DHT22;3433;48.730;9.108;2023-02-26T13:40:46;2.80;97.90
6792;DHT22;3433;48.730;9.108;2023-02-26T13:47:25;2.80;97.70
6792;DHT22;3433;48.730;9.108;2023-02-26T13:50:27;2.60;97.90
6792;DHT22;3433;48.730;9.108;2023-02-26T13:53:53;2.40;96.40
6792;DHT22;3433;48.730;9.108;2023-02-26T13:56:52;2.30;97.00
6792;DHT22;3433;48.730;9.108;2023-02-26T13:59:53;2.40;96.90
6792;DHT22;3433;48.730;9.108;2023-02-26T14:02:57;2.60;96.60
6792;DHT22;3433;48.730;9.108;2023-02-26T14:06:08;2.70;96.40
6792;DHT22;3433;48.730;9.108;2023-02-26T14:08:57;2.80;96.50
6792;DHT22;3433;48.730;9.108;2023-02-26T14:12:21;3.30;97.20
6792;DHT22;3433;48.730;9.108;2023-02-26T14:15:42;3.20;95.80
6792;DHT22;3433;48.730;9.108;2023-02-26T14:22:34;3.40;96.10
6792;DHT22;3433;48.730;9.108;2023-02-26T14:25:31;3.40;96.40
6792;DHT22;3433;48.730;9.108;2023-02-26T14:28:33;3.60;96.80
6792;DHT22;3433;48.730;9.108;2023-02-26T14:31:49;3.60;96.20
6792;DHT22;3433;48.730;9.108;2023-02-26T14:34:51;3.60;96.30
6792;DHT22;3433;48.730;9.108;2023-02-26T14:37:42;3.50;95.70
6792;DHT22;3433;48.730;9.108;2023-02-26T14:40:35;3.80;95.40
6792;DHT22;3433;48.730;9.108;2023-02-26T14:43:31;3.80;95.50
6792;DHT22;3433;48.730;9.108;2023-02-26T14:46:20;3.80;95.90
6792;DHT22;3433;48.730;9.108;2023-02-26T14:49:14;3.70;94.50
6792;DHT22;3433;48.730;9.108;2023-02-26T14:52:22;4.00;95.70
6792;DHT22;3433;48.730;9.108;2023-02-26T14:59:03;3.80;94.80
6792;DHT22;3433;48.730;9.108;2023-02-26T15:02:00;3.90;94.20
6792;DHT22;3433;48.730;9.108;2023-02-26T15:08:34;4.00;94.40
6792;DHT22;3433;48.730;9.108;2023-02-26T15:11:54;4.00;94.60
6792;DHT22;3433;48.730;9.108;2023-02-26T15:15:02;3.90;94.20
6792;DHT22;3433;48.730;9.108;2023-02-26T15:18:09;4.20;93.90
6792;DHT22;3433;48.730;9.108;2023-02-26T15:21:07;4.10;94.10
6792;DHT22;3433;48.730;9.108;2023-02-26T15:23:58;4.00;93.90
6792;DHT22;3433;48.730;9.108;2023-02-26T15:26:48;4.10;93.40
6792;DHT22;3433;48.730;9.108;2023-02-26T15:29:38;4.00;93.10
6792;DHT22;3433;48.730;9.108;2023-02-26T15:32:34;4.00;94.20
6792;DHT22;3433;48.730;9.108;2023-02-26T15:35:22;3.70;93.40
6792;DHT22;3433;48.730;9.108;2023-02-26T15:38:10;3.90;94.20
6792;DHT22;3433;48.730;9.108;2023-02-26T15:41:01;3.80;93.50
6792;DHT22;3433;48.730;9.108;2023-02-26T15:43:51;3.70;93.60
6792;DHT22;3433;48.730;9.108;2023-02-26T15:46:44;3.60;94.10
6792;DHT22;3433;48.730;9.108;2023-02-26T15:49:35;3.40;93.90
6792;DHT22;3433;48.730;9.108;2023-02-26T15:52:24;3.90;99.90
6792;DHT22;3433;48.730;9.108;2023-02-26T15:55:15;4.70;99.90
6792;DHT22;3433;48.730;9.108;2023-02-26T15:58:05;5.40;99.90
6792;DHT22;3433;48.730;9.108;2023-02-26T16:00:54;5.80;97.70
6792;DHT22;3433;48.730;9.108;2023-02-26T16:03:45;5.60;97.10
6792;DHT22;3433;48.730;9.108;2023-02-26T16:06:35;5.20;94.30
6792;DHT22;3433;48.730;9.108;2023-02-26T16:09:27;4.90;96.10
6792;DHT22;3433;48.730;9.108;2023-02-26T16:12:17;4.90;95.50
6792;DHT22;3433;48.730;9.108;2023-02-26T16:15:11;4.50;94.20
6792;DHT22;3433;48.730;9.108;2023-02-26T16:18:00;4.30;93.80
6792;DHT22;3433;48.730;9.108;2023-02-26T16:20:53;4.00;94.30
6792;DHT22;3433;48.730;9.108;2023-02-26T16:23:45;3.80;93.30
6792;DHT22;3433;48.730;9.108;2023-02-26T16:26:37;3.80;93.90
6792;DHT22;3433;48.730;9.108;2023-02-26T16:29:27;3.60;93.00
6792;DHT22;3433;48.730;9.108;2023-02-26T16:32:14;3.40;93.00
6792;DHT22;3433;48.730;9.108;2023-02-26T16:35:10;3.40;92.90
6792;DHT22;3433;48.730;9.108;2023-02-26T16:38:10;3.10;92.50
6792;DHT22;3433;48.730;9.108;2023-02-26T16:40:59;2.90;92.50
6792;DHT22;3433;48.730;9.108;2023-02-26T16:43:51;2.70;92.80
6792;DHT22;3433;48.730;9.108;2023-02-26T16:46:42;2.80;92.80
6792;DHT22;3433;48.730;9.108;2023-02-26T16:49:32;2.60;92.80
6792;DHT22;3433;48.730;9.108;2023-02-26T16:52:23;2.40;92.70
6792;DHT22;3433;48.730;9.108;2023-02-26T16:55:13;2.40;93.00
6792;DHT22;3433;48.730;9.108;2023-02-26T16:58:06;2.30;92.80
6792;DHT22;3433;48.730;9.108;2023-02-26T17:00:58;2.40;92.90
6792;DHT22;3433;48.730;9.108;2023-02-26T17:03:51;2.40;92.80
6792;DHT22;3433;48.730;9.108;2023-02-26T17:06:43;2.40;93.00
6792;DHT22;3433;48.730;9.108;2023-02-26T17:09:35;2.40;92.50
6792;DHT22;3433;48.730;9.108;2023-02-26T17:12:29;2.30;92.90
6792;DHT22;3433;48.730;9.108;2023-02-26T17:15:28;2.20;92.50
6792;DHT22;3433;48.730;9.108;2023-02-26T17:18:16;2.40;92.90
6792;DHT22;3433;48.730;9.108;2023-02-26T17:21:04;2.40;93.30
6792;DHT22;3433;48.730;9.108;2023-02-26T17:23:51;2.30;92.70
6792;DHT22;3433;48.730;9.108;2023-02-26T17:26:39;2.30;92.80
6792;DHT22;3433;48.730;9.108;2023-02-26T17:29:31;2.20;92.60
6792;DHT22;3433;48.730;9.108;2023-02-26T17:32:22;2.20;92.70
6792;DHT22;3433;48.730;9.108;2023-02-26T17:35:11;2.20;93.00
6792;DHT22;3433;48.730;9.108;2023-02-26T17:37:59;2.10;92.90
6792;DHT22;3433;48.730;9.108;2023-02-26T17:40:46;2.20;93.10
6792;DHT22;3433;48.730;9.108;2023-02-26T17:43:35;2.10;92.60
6792;DHT22;3433;48.730;9.108;2023-02-26T17:46:25;2.00;92.70
6792;DHT22;3433;48.730;9.108;2023-02-26T17:49:12;2.20;93.30
6792;DHT22;3433;48.730;9.108;2023-02-26T17:52:00;2.20;93.20
6792;DHT22;3433;48.730;9.108;2023-02-26T17:54:48;2.20;93.50
6792;DHT22;3433;48.730;9.108;2023-02-26T17:57:35;2.10;93.20
6792;DHT22;3433;48.730;9.108;2023-02-26T18:00:23;2.20;93.60
6792;DHT22;3433;48.730;9.108;2023-02-26T18:03:12;2.30;94.00
6792;DHT22;3433;48.730;9.108;2023-02-26T18:06:01;2.40;93.40
6792;DHT22;3433;48.730;9.108;2023-02-26T18:09:03;2.40;93.60
6792;DHT22;3433;48.730;9.108;2023-02-26T18:11:52;2.10;93.00
6792;DHT22;3433;48.730;9.108;2023-02-26T18:14:48;2.10;93.40
6792;DHT22;3433;48.730;9.108;2023-02-26T18:17:35;2.10;93.80
6792;DHT22;3433;48.730;9.108;2023-02-26T18:20:24;2.00;93.60
6792;DHT22;3433;48.730;9.108;2023-02-26T18:23:12;2.00;93.70
6792;DHT22;3433;48.730;9.108;2023-02-26T18:26:01;1.80;93.20
6792;DHT22;3433;48.730;9.108;2023-02-26T18:28:49;1.50;92.80
6792;DHT22;3433;48.730;9.108;2023-02-26T18:31:36;1.70;93.10
6792;DHT22;3433;48.730;9.108;2023-02-26T18:34:24;1.70;93.10
6792;DHT22;3433;48.730;9.108;2023-02-26T18:37:14;1.60;93.20
6792;DHT22;3433;48.730;9.108;2023-02-26T18:40:02;1.60;93.00
6792;DHT22;3433;48.730;9.108;2023-02-26T18:42:50;1.60;93.60
6792;DHT22;3433;48.730;9.108;2023-02-26T18:45:38;1.70;93.10
6792;DHT22;3433;48.730;9.108;2023-02-26T18:48:25;1.70;93.30
6792;DHT22;3433;48.730;9.108;2023-02-26T18:51:12;1.60;93.10
6792;DHT22;3433;48.730;9.108;2023-02-26T18:54:01;1.40;92.80
6792;DHT22;3433;48.730;9.108;2023-02-26T18:56:48;1.50;93.20
6792;DHT22;3433;48.730;9.108;2023-02-26T18:59:36;1.50;92.80
6792;DHT22;3433;48.730;9.108;2023-02-26T19:02:24;1.40;93.20
6792;DHT22;3433;48.730;9.108;2023-02-26T19:05:12;1.30;92.80
6792;DHT22;3433;48.730;9.108;2023-02-26T19:08:01;1.40;93.50
6792;DHT22;3433;48.730;9.108;2023-02-26T19:10:49;1.40;93.10
6792;DHT22;3433;48.730;9.108;2023-02-26T19:13:37;1.30;92.80
6792;DHT22;3433;48.730;9.108;2023-02-26T19:16:24;1.20;93.00
6792;DHT22;3433;48.730;9.108;2023-02-26T19:19:12;1.40;93.50
6792;DHT22;3433;48.730;9.108;2023-02-26T19:21:59;1.30;92.80